KLWV/LWV METAR and TAF weather

Enter ICAO airport designator
Station Type Date Time Source
KLWV METAR 2021/07/29 01:53 UTC NOAA

KLWV 290153Z AUTO 00000KT 10SM CLR 26/24 A3002 RMK AO2 SLP160 T02610244


Station Type Date Time Source
KLWV Decoded METAR 2021/07/29 01:53 UTC NOAA

LAWRENCEVILLE-VINCENNES INTERNATIONAL , IL, United States (KLWV) 38-46N 87-36W 131M
Jul 28, 2021 - 09:53 PM EDT / 2021.07.29 0153 UTC
Wind: Calm:0
Visibility: 10 mile(s):0
Sky conditions: clear
Temperature: 79.0 F (26.1 C)
Dew Point: 75.9 F (24.4 C)
Relative Humidity: 90%
Pressure (altimeter): 30.02 in. Hg (1016 hPa)
ob: KLWV 290153Z AUTO 00000KT 10SM CLR 26/24 A3002 RMK AO2 SLP160 T02610244
cycle: 2

Station Type Date Time Source
KLWV TAF UTC NOAA

Error!

Example: see airport list